KSLC

Salt Lake City International Airport

Salt Lake City, Utah, USA
KSLC 170532Z 1706/1812 15007KT P6SM SKC FM171900 29008KT P6SM SCT100 SCT120 FM180300 14007KT P6SM SCT100 SCT120
Issued Valid From Valid To
Oct-17 @ 05:32 UTC
(25 minutes ago)
Oct-17 @ 06:00 UTC
(in 3 minutes)
Oct-18 @ 12:00 UTC
(-1 days ago)
Oct-17 @ 06:00 to Oct-17 @ 19:00
KSLC 170532Z 1706/1812 15007KT P6SM SKC
Wind Visibility Clouds
150° at 7 knots Greater than 6 miles
  • Clear skies
From Oct-17 @ 19:00 to Oct-18 @ 03:00
FM171900 29008KT P6SM SCT100 SCT120
Wind Visibility Clouds
290° at 8 knots Greater than 6 miles
  • Scattered at 10,000' AGL
  • Scattered at 12,000' AGL
From Oct-18 @ 03:00 to Oct-18 @ 12:00
FM180300 14007KT P6SM SCT100 SCT120
Wind Visibility Clouds
140° at 7 knots Greater than 6 miles
  • Scattered at 10,000' AGL
  • Scattered at 12,000' AGL
KSLC 170532Z 1706/1812 15007KT P6SM SKC FM171900 29008KT P6SM SCT100 SCT120 FM180300 14007KT P6SM SCT100 SCT120
Issued Oct-17 @ 05:32 UTC
(25 minutes ago)
Valid From Oct-17 @ 06:00 UTC
(in 3 minutes)
Valid To Oct-18 @ 12:00 UTC
(-1 days ago)
Oct-17 @ 06:00 - Oct-17 @ 19:00
Wind Visibility
150° at 7 knots Greater than 6 miles
Clouds
  • Clear skies
From Oct-17 @ 19:00 - Oct-18 @ 03:00
Wind Visibility
290° at 8 knots Greater than 6 miles
Clouds
  • Scattered at 10,000' AGL
  • Scattered at 12,000' AGL
From Oct-18 @ 03:00 - Oct-18 @ 12:00
Wind Visibility
140° at 7 knots Greater than 6 miles
Clouds
  • Scattered at 10,000' AGL
  • Scattered at 12,000' AGL